This is the latest recevied weather packets stored in our database for station/object WX9WTF. If no packets are shown the sender has not sent any weather packets the latest 1 day(s).
| Time | Temp. | Humidity | Pressure | Rain* | Wind** | Luminosity | Snow |
|---|---|---|---|---|---|---|---|
| 1778003178 | 6.67° C | 96% | 1013.1 hPa | 1.27 mm | 0.89 m/s, 68° | 48 W/m² | - |
| 1778002874 | 7.22° C | 95% | 1013.4 hPa | 0.51 mm | 0.89 m/s, 71° | 45 W/m² | - |
| 1778002571 | 7.22° C | 96% | 1013.1 hPa | 0.51 mm | 1.79 m/s, 87° | 57 W/m² | - |
| 1778002268 | 7.22° C | 95% | 1013.2 hPa | 0 mm | 0.45 m/s, 78° | 53 W/m² | - |
| 1778001966 | 7.22° C | 95% | 1013.1 hPa | 0 mm | 0.45 m/s, 101° | 24 W/m² | - |
| 1778001662 | 7.22° C | 95% | 1013 hPa | 2.29 mm | 1.34 m/s, 38° | 87 W/m² | - |
| 1778001356 | 7.78° C | 95% | 1013 hPa | 3.05 mm | 2.68 m/s, 81° | 56 W/m² | - |
| 1778001054 | 7.78° C | 95% | 1013.3 hPa | 1.27 mm | 1.79 m/s, 51° | 38 W/m² | - |
| 1778000751 | 7.78° C | 94% | 1013.7 hPa | 1.78 mm | 0.89 m/s, 114° | 52 W/m² | - |
| 1778000447 | 7.78° C | 94% | 1013.3 hPa | 3.56 mm | 0.45 m/s, 101° | 41 W/m² | - |
| 1778000142 | 7.78° C | 94% | 1013.1 hPa | 6.6 mm | 0.89 m/s, 75° | 71 W/m² | - |
| 1777999838 | 7.78° C | 93% | 1013.5 hPa | 6.1 mm | 0.45 m/s, 70° | 73 W/m² | - |
| 1777999534 | 7.78° C | 93% | 1013.2 hPa | 4.32 mm | 0.89 m/s, 67° | 73 W/m² | - |
| 1777999232 | 7.78° C | 92% | 1013.2 hPa | 5.33 mm | 0.89 m/s, 50° | 58 W/m² | - |
| 1777998931 | 8.33° C | 91% | 1012.9 hPa | 4.83 mm | 2.24 m/s, 101° | 77 W/m² | - |
| 1777998627 | 8.33° C | 90% | 1013.7 hPa | 3.05 mm | 1.79 m/s, 73° | 74 W/m² | - |
| 1777998325 | 8.33° C | 90% | 1013.9 hPa | 1.27 mm | 1.34 m/s, 50° | 37 W/m² | - |
| 1777998017 | 8.33° C | 90% | 1013.8 hPa | 0 mm | 1.34 m/s, 359° | 36 W/m² | - |
| 1777997714 | 8.33° C | 89% | 1013.2 hPa | 0 mm | 0.89 m/s, 70° | 36 W/m² | - |
| 1777997411 | 8.89° C | 90% | 1013.2 hPa | 0 mm | 1.34 m/s, 24° | 56 W/m² | - |
| 1777997109 | 8.89° C | 89% | 1012.9 hPa | 0 mm | 3.13 m/s, 65° | 152 W/m² | - |
| 1777996806 | 8.89° C | 89% | 1013.2 hPa | 0.51 mm | 4.02 m/s, 32° | 176 W/m² | - |
| 1777996502 | 8.89° C | 89% | 1013.1 hPa | 0.51 mm | 1.79 m/s, 62° | 131 W/m² | - |
| 1777996199 | 8.33° C | 90% | 1013.4 hPa | 0 mm | 0.89 m/s, 83° | 77 W/m² | - |
| 1777995895 | 8.33° C | 90% | 1013 hPa | 1.27 mm | 2.68 m/s, 44° | 46 W/m² | - |
* Rain latest hour (hover to see other rain measurements)
** Current wind speed in m/s (hover to see current wind gust speed)